createdAt,value
2018-04-25T00:01:34.557Z,12.00
2018-04-25T00:04:04.353Z,12.80
2018-04-25T00:06:33.915Z,15.10
2018-04-25T00:09:03.603Z,9.97
2018-04-25T00:11:33.165Z,12.90
2018-04-25T00:14:02.755Z,16.27
2018-04-25T00:16:32.291Z,12.37
2018-04-25T00:19:01.836Z,14.27
2018-04-25T00:21:31.381Z,11.43
2018-04-25T00:24:00.905Z,15.50
2018-04-25T00:26:30.402Z,11.00
2018-04-25T00:28:59.901Z,11.63
2018-04-25T00:31:29.422Z,16.50
2018-04-25T00:33:58.988Z,17.50
2018-04-25T00:36:28.514Z,17.90
2018-04-25T00:38:58.080Z,15.50
2018-04-25T00:41:27.659Z,9.07
2018-04-25T00:43:57.200Z,10.93
2018-04-25T00:46:26.791Z,11.10
2018-04-25T00:48:56.320Z,15.13
2018-04-25T00:51:25.907Z,9.70
2018-04-25T00:53:55.481Z,19.70
2018-04-25T00:56:25.042Z,20.20
2018-04-25T00:58:54.608Z,10.47
2018-04-25T01:01:24.139Z,9.93
2018-04-25T01:03:53.710Z,21.93
2018-04-25T01:06:23.282Z,13.33
2018-04-25T01:08:52.832Z,17.50
2018-04-25T01:11:22.396Z,13.23
2018-04-25T01:13:52.103Z,12.97
2018-04-25T01:16:21.756Z,14.10
2018-04-25T01:18:51.329Z,17.70
2018-04-25T01:21:20.936Z,7.80
2018-04-25T01:23:50.556Z,12.43
2018-04-25T01:26:20.080Z,15.13
2018-04-25T01:28:53.490Z,18.63
2018-04-25T01:31:23.008Z,7.77
2018-04-25T01:33:58.485Z,11.70
2018-04-25T01:36:28.946Z,14.03
2018-04-25T01:39:13.319Z,19.30
2018-04-25T01:41:42.908Z,14.90
2018-04-25T01:44:16.288Z,15.77
2018-04-25T01:46:45.984Z,11.20
2018-04-25T01:49:18.378Z,12.70
2018-04-25T01:51:53.794Z,20.00
2018-04-25T01:54:29.189Z,19.67
2018-04-25T01:57:04.504Z,10.70
2018-04-25T01:59:40.042Z,11.13
2018-04-25T02:02:09.339Z,12.87
2018-04-25T02:04:38.894Z,19.63
2018-04-25T02:07:08.564Z,14.27
2018-04-25T02:09:38.073Z,18.20
2018-04-25T02:12:07.798Z,10.43
2018-04-25T02:14:37.393Z,8.13
2018-04-25T02:17:08.200Z,10.63
2018-04-25T02:19:37.721Z,11.17
2018-04-25T02:22:07.399Z,11.43
2018-04-25T02:24:36.972Z,11.13
2018-04-25T02:27:06.596Z,13.00
2018-04-25T02:29:36.158Z,19.33
2018-04-25T02:32:05.770Z,15.93
2018-04-25T02:34:35.456Z,15.27
2018-04-25T02:37:05.068Z,11.70
2018-04-25T02:39:34.569Z,17.83
2018-04-25T02:42:04.261Z,18.63
2018-04-25T02:44:33.874Z,16.50
2018-04-25T02:47:03.437Z,8.17
2018-04-25T02:49:32.972Z,12.30
2018-04-25T02:52:02.454Z,8.53
2018-04-25T02:54:31.980Z,10.07
2018-04-25T02:57:01.585Z,22.97
2018-04-25T02:59:31.104Z,18.30
2018-04-25T03:02:00.642Z,19.80
2018-04-25T03:04:30.410Z,12.10
2018-04-25T03:06:59.987Z,7.60
2018-04-25T03:09:29.661Z,15.03
2018-04-25T03:11:59.228Z,13.30
2018-04-25T03:14:28.884Z,18.27
2018-04-25T03:16:58.494Z,14.77
2018-04-25T03:19:28.055Z,20.73
2018-04-25T03:21:57.548Z,24.00
2018-04-25T03:24:27.088Z,16.90
2018-04-25T03:26:56.667Z,15.67
2018-04-25T03:29:26.228Z,27.20
2018-04-25T03:31:55.764Z,13.43
2018-04-25T03:34:25.320Z,14.00
2018-04-25T03:36:54.858Z,12.47
2018-04-25T03:39:24.384Z,13.20
2018-04-25T03:41:53.876Z,17.80
2018-04-25T03:44:23.424Z,45.90
2018-04-25T03:46:52.993Z,18.23
2018-04-25T03:49:22.534Z,19.60
2018-04-25T03:51:52.050Z,19.50
2018-04-25T03:54:21.590Z,23.60
2018-04-25T03:56:51.140Z,27.37
2018-04-25T03:59:20.680Z,16.17
2018-04-25T04:01:50.170Z,32.30
2018-04-25T04:04:19.643Z,27.93
2018-04-25T04:06:49.147Z,28.77
2018-04-25T04:09:18.685Z,27.60
2018-04-25T04:11:48.168Z,37.97
2018-04-25T04:14:17.702Z,32.47
2018-04-25T04:16:47.206Z,31.23
2018-04-25T04:19:16.729Z,34.97
2018-04-25T04:21:46.275Z,35.13
2018-04-25T04:24:15.826Z,36.20
2018-04-25T04:26:45.307Z,49.77
2018-04-25T04:29:14.860Z,32.17
2018-04-25T04:31:44.403Z,54.33
2018-04-25T04:34:13.945Z,30.03
2018-04-25T04:36:43.430Z,98.77
2018-04-25T04:39:12.921Z,68.50
2018-04-25T04:41:42.446Z,77.73
2018-04-25T04:44:11.977Z,64.73
2018-04-25T04:46:41.498Z,120.77
2018-04-25T04:49:11.061Z,171.23
2018-04-25T04:51:40.555Z,130.87
2018-04-25T04:54:10.060Z,88.97
2018-04-25T04:56:39.599Z,73.97
2018-04-25T04:59:09.269Z,53.10
2018-04-25T05:01:38.798Z,107.03
2018-04-25T05:04:08.341Z,101.43
2018-04-25T05:06:37.865Z,100.20
2018-04-25T05:09:07.412Z,48.47
2018-04-25T05:11:36.961Z,82.83
2018-04-25T05:14:06.484Z,127.83
2018-04-25T05:16:36.018Z,110.20
2018-04-25T05:19:05.571Z,191.67
2018-04-25T05:21:35.058Z,75.30
2018-04-25T05:24:04.596Z,138.90
2018-04-25T05:26:34.176Z,126.80
2018-04-25T05:29:04.115Z,65.47
2018-04-25T05:31:33.634Z,126.90
2018-04-25T05:34:03.658Z,77.20
2018-04-25T05:36:33.656Z,92.70
2018-04-25T05:39:03.236Z,91.77
2018-04-25T05:41:32.746Z,72.40
2018-04-25T05:44:02.305Z,58.47
2018-04-25T05:46:31.906Z,39.27
2018-04-25T05:49:01.456Z,45.23
2018-04-25T05:51:31.038Z,86.47
2018-04-25T05:54:00.570Z,45.30
2018-04-25T05:56:30.105Z,40.47
2018-04-25T05:58:59.649Z,36.70
2018-04-25T06:01:29.150Z,44.93
2018-04-25T06:03:58.697Z,35.67
2018-04-25T06:06:28.246Z,39.30
2018-04-25T06:08:57.744Z,54.50
2018-04-25T06:11:27.301Z,58.50
2018-04-25T06:13:56.848Z,87.00
2018-04-25T06:16:26.428Z,81.17
2018-04-25T06:18:55.937Z,76.33
2018-04-25T06:21:25.441Z,20.73
2018-04-25T06:23:54.979Z,33.77
2018-04-25T06:26:24.598Z,61.67
2018-04-25T06:28:54.071Z,34.40
2018-04-25T06:31:23.757Z,43.73
2018-04-25T06:33:53.317Z,51.20
2018-04-25T06:36:22.905Z,126.10
2018-04-25T06:38:52.446Z,62.73
2018-04-25T06:41:22.003Z,72.90
2018-04-25T06:43:51.530Z,31.70
2018-04-25T06:46:21.032Z,21.43
2018-04-25T06:48:50.526Z,20.37
2018-04-25T06:51:20.067Z,34.07
2018-04-25T06:53:49.644Z,22.40
2018-04-25T06:56:19.186Z,23.20
2018-04-25T06:58:48.748Z,18.83
2018-04-25T07:01:18.572Z,39.37
2018-04-25T07:03:48.199Z,30.57
2018-04-25T07:06:17.778Z,24.87
2018-04-25T07:08:47.328Z,31.13
2018-04-25T07:11:17.134Z,29.83
2018-04-25T07:13:46.649Z,23.17
2018-04-25T07:16:16.225Z,23.70
2018-04-25T07:18:45.824Z,19.20
2018-04-25T07:21:15.381Z,13.07
2018-04-25T07:23:44.999Z,14.87
2018-04-25T07:26:15.402Z,18.17
2018-04-25T07:28:44.938Z,26.93
2018-04-25T07:31:14.537Z,17.87
2018-04-25T07:33:44.042Z,21.23
2018-04-25T07:36:13.605Z,12.17
2018-04-25T07:38:43.121Z,33.37
2018-04-25T07:41:12.639Z,25.53
2018-04-25T07:43:42.157Z,24.57
2018-04-25T07:46:11.650Z,25.00
2018-04-25T07:48:41.181Z,23.33
2018-04-25T07:51:10.711Z,18.17
2018-04-25T07:53:40.241Z,15.73
2018-04-25T07:56:09.791Z,16.50
2018-04-25T07:58:39.577Z,17.03
2018-04-25T08:01:09.140Z,18.90
2018-04-25T08:03:38.773Z,30.13
2018-04-25T08:06:08.317Z,17.77
2018-04-25T08:08:37.865Z,26.30
2018-04-25T08:11:11.321Z,21.50
2018-04-25T08:13:46.789Z,21.70
2018-04-25T08:16:22.486Z,26.30
2018-04-25T08:18:57.729Z,23.70
2018-04-25T08:21:33.116Z,19.03
2018-04-25T08:24:02.677Z,20.33
2018-04-25T08:26:32.262Z,33.43
2018-04-25T08:29:01.826Z,35.30
2018-04-25T08:31:31.323Z,18.40
2018-04-25T08:34:00.872Z,26.83
2018-04-25T08:36:30.382Z,35.30
2018-04-25T08:38:59.935Z,23.20
2018-04-25T08:41:29.449Z,32.90
2018-04-25T08:43:58.963Z,17.33
2018-04-25T08:46:28.466Z,30.53
2018-04-25T08:48:58.005Z,21.60
2018-04-25T08:51:27.546Z,32.93
2018-04-25T08:53:57.090Z,20.53
2018-04-25T08:56:26.644Z,24.77
2018-04-25T08:58:56.194Z,31.40
2018-04-25T09:01:25.765Z,20.80
2018-04-25T09:03:55.325Z,20.50
2018-04-25T09:06:24.865Z,38.43
2018-04-25T09:08:54.458Z,28.20
2018-04-25T09:11:24.025Z,31.63
2018-04-25T09:13:53.584Z,30.90
2018-04-25T09:16:23.167Z,25.70
2018-04-25T09:18:52.683Z,32.13
2018-04-25T09:21:22.203Z,24.87
2018-04-25T09:23:51.785Z,22.37
2018-04-25T09:26:21.279Z,29.63
2018-04-25T09:28:50.866Z,31.80
2018-04-25T09:31:20.390Z,31.70
2018-04-25T09:33:49.945Z,20.47
2018-04-25T09:36:19.526Z,22.03
2018-04-25T09:38:49.093Z,26.93
2018-04-25T09:41:18.604Z,27.43
2018-04-25T09:43:48.194Z,23.37
2018-04-25T09:46:17.749Z,26.70
2018-04-25T09:48:47.273Z,28.33
2018-04-25T09:51:16.849Z,16.93
2018-04-25T09:53:46.418Z,25.33
2018-04-25T09:56:15.928Z,31.70
2018-04-25T09:58:45.485Z,24.50
2018-04-25T10:01:20.769Z,30.23
2018-04-25T10:03:50.337Z,25.53
2018-04-25T10:06:19.852Z,32.17
2018-04-25T10:08:49.394Z,26.67
2018-04-25T10:11:18.996Z,20.53
2018-04-25T10:13:49.088Z,32.97
2018-04-25T10:16:18.623Z,20.50
2018-04-25T10:18:48.125Z,18.37
2018-04-25T10:21:17.665Z,19.57
2018-04-25T10:23:47.232Z,24.47
2018-04-25T10:26:16.773Z,24.30
2018-04-25T10:28:46.273Z,25.03
2018-04-25T10:31:15.811Z,28.27
2018-04-25T10:33:45.348Z,13.13
2018-04-25T10:36:14.858Z,21.23
2018-04-25T10:38:44.420Z,19.53
2018-04-25T10:41:14.010Z,40.47
2018-04-25T10:43:43.518Z,27.50
2018-04-25T10:46:13.180Z,21.70
2018-04-25T10:48:42.697Z,25.20
2018-04-25T10:51:12.225Z,38.13
2018-04-25T10:53:41.810Z,29.47
2018-04-25T10:56:11.310Z,36.93
2018-04-25T10:58:40.836Z,25.03
2018-04-25T11:01:10.369Z,28.43
2018-04-25T11:03:39.867Z,23.40
2018-04-25T11:06:09.393Z,30.53
2018-04-25T11:08:38.929Z,33.27
2018-04-25T11:11:08.457Z,33.00
2018-04-25T11:13:38.178Z,23.63
2018-04-25T11:16:10.233Z,31.90
2018-04-25T11:18:39.750Z,27.70
2018-04-25T11:21:09.296Z,39.70
2018-04-25T11:23:39.058Z,32.13
2018-04-25T11:26:08.668Z,39.57
2018-04-25T11:28:38.246Z,32.73
2018-04-25T11:31:07.805Z,30.20
2018-04-25T11:33:37.351Z,46.20
2018-04-25T11:36:06.907Z,31.73
2018-04-25T11:38:36.467Z,30.83
2018-04-25T11:41:06.032Z,39.17
2018-04-25T11:43:35.563Z,39.70
2018-04-25T11:46:05.158Z,31.53
2018-04-25T11:48:34.725Z,28.83
2018-04-25T11:51:04.319Z,38.13
2018-04-25T11:53:33.872Z,30.90
2018-04-25T11:56:03.680Z,31.00
2018-04-25T11:58:33.257Z,46.43
2018-04-25T12:01:02.832Z,27.10
2018-04-25T12:03:32.427Z,31.63
2018-04-25T12:06:01.956Z,28.27
2018-04-25T12:08:31.461Z,23.10
2018-04-25T12:11:00.983Z,37.53
2018-04-25T12:13:30.549Z,30.03
2018-04-25T12:16:00.170Z,25.23
2018-04-25T12:18:29.736Z,23.20
2018-04-25T12:20:59.298Z,23.95
2018-04-25T12:23:28.856Z,22.80
2018-04-25T12:25:58.367Z,16.90
2018-04-25T12:28:27.916Z,19.53
2018-04-25T12:30:57.464Z,18.67
2018-04-25T12:33:27.016Z,29.73
2018-04-25T12:35:56.518Z,24.67
2018-04-25T12:38:26.075Z,22.23
2018-04-25T12:40:55.620Z,20.67
2018-04-25T12:43:25.148Z,19.47
2018-04-25T12:45:54.683Z,20.50
2018-04-25T12:48:24.213Z,23.63
2018-04-25T12:50:53.764Z,14.20
2018-04-25T12:53:23.337Z,18.50
2018-04-25T12:55:52.856Z,13.37
2018-04-25T12:58:22.398Z,17.50
2018-04-25T13:00:51.957Z,13.00
2018-04-25T13:03:21.615Z,21.27
2018-04-25T13:05:51.151Z,21.07
2018-04-25T13:08:20.676Z,24.40
2018-04-25T13:10:50.196Z,26.50
2018-04-25T13:13:19.769Z,22.07
2018-04-25T13:15:49.360Z,17.00
2018-04-25T13:18:18.879Z,17.63
2018-04-25T13:20:48.440Z,14.73
2018-04-25T13:23:18.098Z,27.10
2018-04-25T13:25:47.889Z,18.90
2018-04-25T13:28:17.453Z,16.20
2018-04-25T13:30:46.978Z,16.83
2018-04-25T13:33:16.515Z,18.30
2018-04-25T13:35:46.050Z,15.43
2018-04-25T13:38:15.584Z,14.98
2018-04-25T13:40:45.142Z,20.60
2018-04-25T13:43:14.684Z,22.48
2018-04-25T13:45:44.221Z,21.85
2018-04-25T13:48:13.781Z,13.27
2018-04-25T13:50:43.459Z,16.00
2018-04-25T13:53:13.045Z,13.68
2018-04-25T13:55:42.648Z,27.73
2018-04-25T13:58:12.185Z,15.60
2018-04-25T14:00:41.759Z,17.08
2018-04-25T14:03:11.217Z,17.02
2018-04-25T14:05:40.694Z,16.27
2018-04-25T14:08:10.176Z,11.40
2018-04-25T14:10:39.671Z,16.75
2018-04-25T14:13:09.241Z,18.77
2018-04-25T14:15:38.797Z,14.70
2018-04-25T14:18:08.346Z,12.00
2018-04-25T14:20:37.907Z,26.37
2018-04-25T14:23:07.457Z,16.00
2018-04-25T14:25:37.032Z,14.80
2018-04-25T14:28:06.612Z,11.90
2018-04-25T14:30:36.141Z,20.60
2018-04-25T14:33:05.665Z,16.27
2018-04-25T14:35:35.258Z,19.52
2018-04-25T14:38:04.724Z,17.75
2018-04-25T14:40:34.295Z,23.40
2018-04-25T14:43:03.792Z,21.03
2018-04-25T14:45:33.352Z,24.20
2018-04-25T14:48:02.906Z,16.92
2018-04-25T14:50:32.449Z,17.37
2018-04-25T14:53:01.992Z,17.77
2018-04-25T14:55:31.544Z,10.77
2018-04-25T14:58:01.114Z,12.73
2018-04-25T15:00:30.668Z,12.80
2018-04-25T15:03:00.240Z,18.85
2018-04-25T15:05:29.777Z,24.58
2018-04-25T15:07:59.340Z,8.15
2018-04-25T15:10:28.910Z,18.17
2018-04-25T15:12:58.461Z,17.12
2018-04-25T15:15:28.019Z,13.88
2018-04-25T15:17:57.627Z,17.58
2018-04-25T15:20:27.149Z,13.07
2018-04-25T15:22:56.703Z,11.15
2018-04-25T15:25:26.320Z,12.75
2018-04-25T15:27:55.832Z,25.37
2018-04-25T15:30:25.396Z,19.90
2018-04-25T15:32:54.919Z,10.88
2018-04-25T15:35:24.492Z,13.82
2018-04-25T15:37:54.101Z,21.40
2018-04-25T15:40:23.640Z,17.55
2018-04-25T15:42:53.205Z,14.05
2018-04-25T15:45:22.816Z,14.85
2018-04-25T15:47:52.389Z,17.75
2018-04-25T15:50:22.206Z,12.23
2018-04-25T15:52:51.711Z,21.48
2018-04-25T15:55:21.373Z,14.75
2018-04-25T15:57:50.913Z,14.30
2018-04-25T16:00:20.433Z,17.02
2018-04-25T16:02:50.202Z,17.77
2018-04-25T16:05:19.770Z,15.38
2018-04-25T16:07:49.293Z,21.95
2018-04-25T16:10:18.917Z,17.02
2018-04-25T16:12:48.504Z,20.25
2018-04-25T16:15:18.112Z,12.57
2018-04-25T16:17:47.671Z,17.77
2018-04-25T16:20:17.210Z,26.30
2018-04-25T16:22:46.798Z,17.37
2018-04-25T16:25:16.321Z,24.00
2018-04-25T16:27:46.004Z,27.77
2018-04-25T16:30:15.542Z,18.70
2018-04-25T16:32:45.162Z,16.33
2018-04-25T16:35:14.911Z,23.40
2018-04-25T16:37:44.418Z,16.70
2018-04-25T16:40:13.994Z,20.67
2018-04-25T16:42:44.297Z,17.00
2018-04-25T16:45:13.834Z,19.30
2018-04-25T16:47:43.368Z,29.50
2018-04-25T16:50:12.920Z,30.27
2018-04-25T16:52:43.628Z,19.37
2018-04-25T16:55:13.141Z,17.53
2018-04-25T16:57:43.075Z,20.27
2018-04-25T17:00:12.646Z,27.93
2018-04-25T17:02:42.386Z,22.83
2018-04-25T17:05:11.958Z,26.93
2018-04-25T17:07:41.473Z,31.47
2018-04-25T17:10:11.018Z,19.43
2018-04-25T17:12:40.531Z,23.47
2018-04-25T17:15:10.058Z,22.17
2018-04-25T17:17:39.573Z,19.30
2018-04-25T17:20:09.176Z,21.73
2018-04-25T17:22:38.883Z,16.00
2018-04-25T17:25:08.535Z,15.70
2018-04-25T17:27:38.119Z,15.47
2018-04-25T17:30:07.799Z,31.13
2018-04-25T17:32:37.461Z,16.17
2018-04-25T17:35:07.011Z,16.73
2018-04-25T17:37:36.600Z,21.40
2018-04-25T17:40:06.156Z,16.27
2018-04-25T17:42:35.759Z,19.47
2018-04-25T17:45:05.385Z,19.73
2018-04-25T17:47:34.982Z,14.23
2018-04-25T17:50:04.665Z,15.77
2018-04-25T17:52:34.213Z,17.27
2018-04-25T17:55:04.122Z,19.43
2018-04-25T17:57:33.954Z,22.47
2018-04-25T18:00:03.533Z,19.13
2018-04-25T18:02:33.061Z,18.60
2018-04-25T18:05:02.631Z,19.93
2018-04-25T18:07:32.170Z,44.20
2018-04-25T18:10:01.745Z,18.10
2018-04-25T18:12:31.708Z,22.13
2018-04-25T18:15:01.548Z,11.03
2018-04-25T18:17:31.126Z,21.50
2018-04-25T18:20:00.672Z,22.27
2018-04-25T18:22:30.414Z,24.60
2018-04-25T18:24:59.988Z,12.67
2018-04-25T18:27:29.556Z,16.57
2018-04-25T18:29:59.122Z,18.70
2018-04-25T18:32:28.801Z,26.13
2018-04-25T18:34:58.429Z,29.03
2018-04-25T18:37:29.726Z,15.10
2018-04-25T18:39:59.427Z,24.53
2018-04-25T18:42:29.338Z,29.23
2018-04-25T18:44:58.955Z,19.47
2018-04-25T18:47:28.502Z,23.20
2018-04-25T18:49:58.144Z,26.97
2018-04-25T18:52:28.743Z,26.97
2018-04-25T18:54:58.312Z,21.83
2018-04-25T18:57:27.902Z,22.33
2018-04-25T18:59:57.486Z,25.53
2018-04-25T19:02:27.184Z,39.73
2018-04-25T19:04:57.128Z,20.43
2018-04-25T19:07:26.813Z,13.70
2018-04-25T19:09:56.790Z,37.90
2018-04-25T19:12:26.842Z,39.20
2018-04-25T19:14:56.700Z,26.33
2018-04-25T19:17:26.616Z,25.17
2018-04-25T19:19:56.346Z,20.57
2018-04-25T19:22:25.895Z,28.90
2018-04-25T19:24:55.594Z,22.20
2018-04-25T19:27:25.172Z,30.33
2018-04-25T19:29:54.888Z,34.03
2018-04-25T19:32:24.532Z,26.43
2018-04-25T19:34:54.231Z,13.47
2018-04-25T19:37:23.981Z,34.23
2018-04-25T19:39:53.519Z,36.27
2018-04-25T19:42:23.757Z,35.63
2018-04-25T19:44:53.334Z,41.10
2018-04-25T19:47:22.869Z,38.50
2018-04-25T19:49:52.457Z,26.43
2018-04-25T19:52:22.217Z,44.37
2018-04-25T19:54:51.998Z,32.30
2018-04-25T19:57:21.598Z,38.93
2018-04-25T19:59:51.239Z,32.20
2018-04-25T20:02:20.805Z,42.07
2018-04-25T20:04:50.469Z,20.43
2018-04-25T20:07:20.010Z,26.13
2018-04-25T20:09:49.529Z,23.33
2018-04-25T20:12:19.375Z,29.63
2018-04-25T20:14:48.923Z,26.10
2018-04-25T20:17:18.655Z,38.93
2018-04-25T20:19:48.223Z,25.23
2018-04-25T20:22:18.033Z,28.93
2018-04-25T20:24:47.872Z,24.40
2018-04-25T20:27:17.753Z,27.73
2018-04-25T20:29:47.494Z,42.90
2018-04-25T20:32:17.672Z,26.23
2018-04-25T20:34:47.292Z,25.53
2018-04-25T20:37:16.875Z,17.77
2018-04-25T20:39:46.423Z,28.43
2018-04-25T20:42:15.947Z,19.30
2018-04-25T20:44:46.379Z,28.57
2018-04-25T20:47:15.967Z,16.60
2018-04-25T20:49:45.513Z,30.07
2018-04-25T20:52:15.149Z,26.57
2018-04-25T20:54:45.487Z,24.20
2018-04-25T20:57:15.048Z,24.83
2018-04-25T20:59:44.565Z,21.30
2018-04-25T21:02:14.270Z,25.43
2018-04-25T21:04:43.769Z,22.63
2018-04-25T21:07:13.334Z,26.17
2018-04-25T21:09:42.978Z,29.33
2018-04-25T21:12:12.703Z,23.13
2018-04-25T21:14:42.473Z,29.60
2018-04-25T21:17:12.301Z,25.23
2018-04-25T21:19:41.838Z,18.70
2018-04-25T21:22:11.388Z,16.70
2018-04-25T21:24:41.133Z,21.93
2018-04-25T21:27:10.981Z,22.43
2018-04-25T21:29:40.711Z,25.33
2018-04-25T21:32:10.255Z,21.93
2018-04-25T21:34:39.936Z,17.13
2018-04-25T21:37:09.484Z,16.10
2018-04-25T21:39:39.005Z,25.03
2018-04-25T21:42:08.844Z,19.83
2018-04-25T21:44:38.365Z,22.40
2018-04-25T21:47:08.030Z,19.10
2018-04-25T21:49:37.675Z,14.47
2018-04-25T21:52:07.423Z,24.20
2018-04-25T21:54:37.036Z,19.90
2018-04-25T21:57:06.572Z,15.00
2018-04-25T21:59:36.095Z,27.23
2018-04-25T22:02:05.701Z,20.13
2018-04-25T22:04:35.265Z,25.50
2018-04-25T22:07:04.841Z,18.93
2018-04-25T22:09:34.392Z,29.53
2018-04-25T22:12:04.164Z,28.93
2018-04-25T22:14:33.776Z,16.93
2018-04-25T22:17:03.372Z,17.50
2018-04-25T22:19:32.956Z,20.93
2018-04-25T22:22:02.506Z,14.17
2018-04-25T22:24:32.065Z,23.83
2018-04-25T22:27:01.579Z,15.10
2018-04-25T22:29:31.109Z,17.33
2018-04-25T22:32:00.614Z,23.10
2018-04-25T22:34:30.143Z,23.90
2018-04-25T22:36:59.684Z,19.37
2018-04-25T22:39:29.198Z,31.80
2018-04-25T22:41:58.718Z,28.77
2018-04-25T22:44:28.181Z,23.67
2018-04-25T22:46:57.702Z,30.63
2018-04-25T22:49:27.234Z,23.10
2018-04-25T22:51:56.717Z,16.00
2018-04-25T22:54:26.225Z,23.40
2018-04-25T22:56:55.732Z,26.13
2018-04-25T22:59:25.316Z,20.03
2018-04-25T23:01:55.077Z,15.60
2018-04-25T23:04:24.663Z,17.10
2018-04-25T23:06:54.292Z,17.60
2018-04-25T23:09:23.856Z,21.70
2018-04-25T23:11:53.384Z,24.53
2018-04-25T23:14:22.921Z,30.27
2018-04-25T23:16:52.457Z,28.33
2018-04-25T23:19:22.009Z,18.13
2018-04-25T23:21:51.548Z,29.43
2018-04-25T23:24:21.061Z,24.53
2018-04-25T23:26:50.592Z,19.80
2018-04-25T23:29:20.180Z,17.00
2018-04-25T23:31:49.727Z,20.00
2018-04-25T23:34:19.324Z,13.13
2018-04-25T23:36:48.952Z,21.70
2018-04-25T23:39:18.489Z,20.10
2018-04-25T23:41:48.034Z,22.43
2018-04-25T23:44:17.584Z,20.33
2018-04-25T23:46:47.130Z,17.87
2018-04-25T23:49:16.656Z,15.10
2018-04-25T23:51:46.175Z,14.67
2018-04-25T23:54:15.673Z,25.53
2018-04-25T23:56:45.212Z,16.63
2018-04-25T23:59:14.781Z,31.90
